Pagina principale
METAR-TAF:

METAR-TAF

Aeroporti :

Aeroporto di Satu Mare

Satu Mare, Romania

latitudine: 47-48N, longitudine: 022-53E, altezza: 123 m

Osservazione

Il bollettino è stato emesso 26 minuti fa, alle 02:00 UTC
Vento calmo
Temperature 15°C
Umidità 88%
Pressione 1020 hPa
Visibilità 10 km o più

METAR: LRSM 210200Z AUTO 00000KT 9999 NCD 15/13 Q1020

Ora: 05:26 (02:26 UTC)

Previsione

Il bollettino è stato emesso 12 ore e 26 minuti fa, alle 14:00 UTC
Previsione valida dal 20 alle 15 UTC al 21 alle 00 UTC
Vento 10 kt da nord/nord-ovest
Visibilità 10 km o più
nessuna nube inferiore a 1500 m e nessun cumulonembo
Evoluzione graduale
dal 20 alle 16 UTC al 20 alle 18 UTC
Vento 4 kt da direzioni variabili

TAF: LRSM 201400Z 2015/2100 34010KT CAVOK BECMG 2016/2018 VRB04KT

Osservazioni e previsioni meteorologiche di più di 4000 aeroporti (messaggi METAR e TAF).

Le stazioni disponibili sono rappresentate dai dischi gialli e rossi sulla carta.

Puntare il mouse per vedere il nome della stazione.

Clicca sopra per visualizzare le osservazioni e previsioni meteorologiche.

Per cambiare la mappa : fare clic sui pulsanti verdi con una croce nera per ingrandire, il pulsante verde con un trattino per diminuire, o sulla freccia verde per le mappe adiacenti.


METAR-TAF: